createdAt,value
2023-01-13T00:18:53.339Z,1560
2023-01-13T00:38:53.381Z,1545
2023-01-13T00:59:01.462Z,1562
2023-01-13T01:19:01.558Z,1571
2023-01-13T01:38:53.552Z,1577
2023-01-13T02:18:53.677Z,1594
2023-01-13T02:38:53.758Z,1640
2023-01-13T02:59:01.803Z,1624
2023-01-13T03:19:01.875Z,1630
2023-01-13T03:38:53.930Z,1643
2023-01-13T03:58:53.966Z,1627
2023-01-13T04:19:02.082Z,1624
2023-01-13T04:38:54.091Z,1622
2023-01-13T04:59:02.175Z,1620
2023-01-13T05:38:54.366Z,1610
2023-01-13T05:58:54.342Z,1599
2023-01-13T06:39:02.505Z,1597
2023-01-13T06:58:54.537Z,1577
2023-01-13T07:19:02.606Z,1572
2023-01-13T07:38:54.881Z,1561
2023-01-13T07:58:54.712Z,1559
2023-01-13T08:19:02.791Z,1548
2023-01-13T08:38:54.831Z,1550
2023-01-13T08:58:54.879Z,1561
2023-01-13T09:39:03.012Z,1547
2023-01-13T09:59:03.075Z,1525
2023-01-13T10:18:55.132Z,1535
2023-01-13T10:38:57.199Z,1517
2023-01-13T10:59:03.252Z,1513
2023-01-13T11:19:03.331Z,1506
2023-01-13T11:38:55.359Z,1507
2023-01-13T11:58:55.439Z,1499
2023-01-13T12:18:55.502Z,1493
2023-01-13T12:39:03.537Z,1496
2023-01-13T12:58:55.604Z,1491
2023-01-13T13:19:03.655Z,1491
2023-01-13T13:38:55.703Z,1479
2023-01-13T13:58:55.777Z,1471
2023-01-13T14:19:03.793Z,1467
2023-01-13T14:39:03.839Z,1473
2023-01-13T14:59:03.896Z,1464
2023-01-13T15:18:55.972Z,1467
2023-01-13T15:39:04.035Z,1459
2023-01-13T16:19:04.167Z,1442
2023-01-13T16:38:56.416Z,1447
2023-01-13T17:18:56.383Z,1443
2023-01-13T17:58:56.488Z,1444
2023-01-13T18:18:56.780Z,1436
2023-01-13T18:58:56.682Z,1426
2023-01-13T19:18:56.750Z,1420
2023-01-13T19:38:56.785Z,1420
2023-01-13T19:59:04.874Z,1415
2023-01-13T20:18:56.929Z,1414
2023-01-13T20:39:04.977Z,1412
2023-01-13T20:58:57.058Z,1410
2023-01-13T21:18:57.150Z,1405
2023-01-13T21:38:57.179Z,1403
2023-01-13T21:58:57.265Z,1401
2023-01-13T22:18:57.280Z,1398
2023-01-13T22:38:57.342Z,1392
2023-01-13T22:58:57.390Z,1393
2023-01-13T23:38:57.543Z,1387
2023-01-13T23:58:57.593Z,1384
